Time;durP1;ratioP1;P1;durP2;ratioP2;P2;SDS_P1;SDS_P2;PMS_P1;PMS_P2;Temp;Humidity;BMP_temperature;BMP_pressure;BME280_temperature;BME280_humidity;BME280_pressure;Samples;Min_cycle;Max_cycle;Signal;HPM_P1;HPM_P2
2023/01/28 00:02:34;;;;;;;29.90;18.30;;;;;;;-1.17;97.81;100114.95;450158;1251;143193;-61
2023/01/28 00:12:40;;;;;;;27.30;17.40;;;;;;;-1.20;97.93;100112.39;449431;1251;145148;-61
2023/01/28 00:22:49;;;;;;;27.30;17.10;;;;;;;-1.22;97.91;100111.88;450185;1251;147461;-61
2023/01/28 00:32:56;;;;;;;24.40;16.20;;;;;;;-1.24;97.70;100116.70;450120;1251;143558;-61
2023/01/28 00:43:02;;;;;;;26.60;17.70;;;;;;;-1.24;97.91;100120.32;449370;1251;143114;-61
2023/01/28 00:53:08;;;;;;;28.20;18.70;;;;;;;-1.22;98.01;100117.20;450137;1251;142624;-62
2023/01/28 01:03:14;;;;;;;26.30;15.60;;;;;;;-1.21;97.88;100114.97;450033;1251;145351;-62
2023/01/28 01:13:20;;;;;;;28.50;16.80;;;;;;;-1.22;97.95;100123.73;444517;1251;142736;-61
2023/01/28 01:23:26;;;;;;;29.20;16.50;;;;;;;-1.22;98.43;100124.77;450125;1251;142341;-61
2023/01/28 01:33:32;;;;;;;25.50;16.70;;;;;;;-1.24;98.25;100122.38;449376;1251;200504;-61
2023/01/28 01:43:50;;;;;;;26.00;15.90;;;;;;;-1.24;98.15;100128.55;450093;1251;143613;-61
2023/01/28 01:53:57;;;;;;;26.90;16.20;;;;;;;-1.24;98.40;100132.00;450133;1251;143702;-61
2023/01/28 02:04:08;;;;;;;26.60;17.60;;;;;;;-1.24;98.36;100131.48;449248;1252;143347;-61
2023/01/28 02:14:14;;;;;;;24.80;16.70;;;;;;;-1.25;98.69;100132.70;450069;1251;144421;-60
2023/01/28 02:25:13;;;;;;;26.20;18.40;;;;;;;-1.30;98.51;100130.84;444786;1251;143078;-61
2023/01/28 02:35:29;;;;;;;28.10;17.40;;;;;;;-1.32;98.48;100130.67;438174;1251;142678;-60
2023/01/28 02:56:02;;;;;;;24.70;15.90;;;;;;;-1.36;98.57;100132.94;434518;1251;142535;-60
2023/01/28 03:06:12;;;;;;;23.50;15.90;;;;;;;-1.38;98.75;100142.56;434997;1251;148668;-60
2023/01/28 03:37:13;;;;;;;23.10;14.80;;;;;;;-1.41;98.64;100147.39;438772;1250;143255;-60
2023/01/28 03:47:20;;;;;;;24.70;16.00;;;;;;;-1.39;98.63;100136.05;435492;1251;142461;-60
2023/01/28 03:57:30;;;;;;;26.50;15.50;;;;;;;-1.35;98.66;100136.70;440699;1250;144589;-60
2023/01/28 04:07:37;;;;;;;22.50;14.20;;;;;;;-1.34;99.17;100138.08;443123;1250;142801;-61
2023/01/28 04:17:45;;;;;;;21.60;14.40;;;;;;;-1.35;98.71;100136.36;440504;1250;141958;-60
2023/01/28 04:27:51;;;;;;;22.60;12.80;;;;;;;-1.35;99.44;100140.83;448788;1250;142794;-60
2023/01/28 04:37:57;;;;;;;20.30;11.60;;;;;;;-1.40;99.56;100142.92;435023;1252;141897;-62
2023/01/28 04:48:02;;;;;;;22.50;13.70;;;;;;;-1.43;99.97;100146.89;437852;1251;143176;-60
2023/01/28 04:58:09;;;;;;;25.10;13.40;;;;;;;-1.47;100.00;100151.20;439060;1252;143260;-61
2023/01/28 05:08:14;;;;;;;24.10;14.50;;;;;;;-1.50;100.00;100155.67;450357;1251;143553;-61
2023/01/28 05:18:21;;;;;;;19.60;11.90;;;;;;;-1.54;100.00;100162.58;450311;1251;143362;-61
2023/01/28 05:28:28;;;;;;;19.50;11.30;;;;;;;-1.50;100.00;100168.91;449863;1251;143024;-61
2023/01/28 05:38:33;;;;;;;17.80;11.60;;;;;;;-1.47;100.00;100181.61;450212;1251;143258;-60
2023/01/28 05:48:39;;;;;;;27.10;16.40;;;;;;;-1.45;100.00;100175.23;449602;1251;143682;-61
2023/01/28 05:58:45;;;;;;;23.30;14.30;;;;;;;-1.47;100.00;100180.05;447108;1251;144182;-61
2023/01/28 06:08:51;;;;;;;19.30;12.20;;;;;;;-1.53;100.00;100186.60;450261;1251;144214;-61
2023/01/28 06:18:56;;;;;;;22.30;12.90;;;;;;;-1.59;100.00;100192.48;449428;1251;144589;-61
2023/01/28 06:29:02;;;;;;;21.30;12.90;;;;;;;-1.58;100.00;100195.90;450270;1251;143703;-61
2023/01/28 06:39:08;;;;;;;19.00;12.40;;;;;;;-1.54;100.00;100200.17;450330;1251;143375;-61
2023/01/28 06:49:14;;;;;;;19.60;11.70;;;;;;;-1.53;100.00;100214.08;449580;1252;144227;-61
2023/01/28 06:59:19;;;;;;;16.50;11.70;;;;;;;-1.52;100.00;100218.37;450394;1251;142928;-61
2023/01/28 07:09:25;;;;;;;18.70;11.30;;;;;;;-1.55;100.00;100229.38;449574;1252;144305;-61
2023/01/28 07:19:31;;;;;;;22.60;12.90;;;;;;;-1.51;100.00;100237.95;450374;1251;146673;-61
2023/01/28 07:29:37;;;;;;;20.70;13.70;;;;;;;-1.52;100.00;100245.85;450354;1251;143586;-61
2023/01/28 07:39:43;;;;;;;24.00;13.70;;;;;;;-1.55;100.00;100253.76;449575;1251;144097;-61
2023/01/28 07:49:49;;;;;;;21.00;14.10;;;;;;;-1.54;100.00;100259.25;450208;1252;143101;-61
2023/01/28 07:59:55;;;;;;;17.70;13.00;;;;;;;-1.50;100.00;100258.72;449873;1251;143933;-61
2023/01/28 08:10:00;;;;;;;19.50;13.00;;;;;;;-1.47;100.00;100262.48;449594;1251;143865;-61
2023/01/28 08:20:09;;;;;;;24.80;14.30;;;;;;;-1.44;100.00;100260.75;450377;1251;145170;-61
2023/01/28 08:30:15;;;;;;;21.00;13.30;;;;;;;-1.41;100.00;100266.75;450360;1251;143032;-61
2023/01/28 08:40:22;;;;;;;18.20;11.20;;;;;;;-1.39;100.00;100265.89;449648;1251;143491;-61
2023/01/28 08:50:31;;;;;;;18.20;13.00;;;;;;;-1.31;100.00;100266.72;450271;1251;144504;-62
2023/01/28 09:00:37;;;;;;;20.90;13.90;;;;;;;-1.26;100.00;100268.59;440039;1250;142870;-60
2023/01/28 09:10:44;;;;;;;20.00;13.30;;;;;;;-1.20;100.00;100280.59;440039;1250;142967;-60
2023/01/28 09:20:49;;;;;;;;;;;;;;;-1.17;100.00;100293.63;435875;1253;145818;-60
2023/01/28 09:30:53;;;;;;;;;;;;;;;-1.20;100.00;100293.64;449913;1250;132632;-61
2023/01/28 09:40:58;;;;;;;;;;;;;;;-1.16;100.00;100289.33;450558;1251;128494;-61
2023/01/28 09:51:02;;;;;;;;;;;;;;;-1.05;100.00;100297.88;450570;1252;184011;-61
2023/01/28 10:01:22;;;;;;;;;;;;;;;-0.93;100.00;100295.74;449916;1252;129292;-61
2023/01/28 10:11:38;;;;;;;;;;;;;;;-0.87;100.00;100292.45;450548;1251;129821;-62
2023/01/28 10:21:44;;;;;;;;;;;;;;;-0.84;100.00;100289.67;449917;1251;187949;-61
2023/01/28 10:31:52;;;;;;;;;;;;;;;-0.81;100.00;100280.56;450631;1251;129302;-61
2023/01/28 10:41:56;;;;;;;;;;;;;;;-0.81;100.00;100275.57;450662;1251;129410;-61
2023/01/28 10:52:10;;;;;;;;;;;;;;;-0.78;100.00;100272.45;449943;1251;130979;-62
2023/01/28 11:02:24;;;;;;;;;;;;;;;-0.74;100.00;100269.85;450528;1252;129830;-62
2023/01/28 11:12:29;;;;;;;;;;;;;;;-0.70;100.00;100269.30;449780;1252;128881;-61
2023/01/28 11:22:36;;;;;;;;;;;;;;;-0.68;100.00;100260.36;450406;1251;131468;-61
2023/01/28 11:32:40;;;;;;;;;;;;;;;-0.66;100.00;100256.89;448024;1253;130281;-60
2023/01/28 11:42:44;;;;;;;;;;;;;;;-0.75;100.00;100253.86;448708;1252;131245;-61
2023/01/28 11:52:54;;;;;;;;;;;;;;;-0.77;100.00;100248.89;450637;1251;129098;-61
2023/01/28 12:03:23;;;;;;;;;;;;;;;-0.70;99.98;100248.68;446086;1252;129269;-61
2023/01/28 12:13:34;;;;;;;;;;;;;;;-0.68;100.00;100241.43;450027;1250;198202;-60
2023/01/28 12:23:50;;;;;;;;;;;;;;;-0.70;99.94;100243.34;450461;1252;128921;-62
2023/01/28 12:34:01;;;;;;;;;;;;;;;-0.67;99.89;100239.38;449691;1252;129503;-61
2023/01/28 12:44:10;;;;;;;;;;;;;;;-0.59;99.93;100242.41;450453;1251;129755;-61
2023/01/28 12:54:17;;;;;;;;;;;;;;;-0.61;99.68;100238.98;450489;1252;129648;-62
2023/01/28 13:04:26;;;;;;;;;;;;;;;-0.66;99.51;100245.38;449991;1252;128767;-61
2023/01/28 13:14:32;;;;;;;;;;;;;;;-0.73;99.71;100253.52;450512;1254;129374;-61
2023/01/28 13:24:36;;;;;;;;;;;;;;;-0.82;99.39;100250.81;449704;1251;129083;-61
2023/01/28 13:34:42;;;;;;;;;;;;;;;-0.84;99.40;100255.30;450372;1250;131007;-62
2023/01/28 13:44:47;;;;;;;;;;;;;;;-0.86;99.27;100263.91;446583;1255;130313;-61
2023/01/28 13:54:55;;;;;;;;;;;;;;;-0.95;99.29;100264.48;432180;1255;129871;-61
2023/01/28 14:05:24;;;;;;;;;;;;;;;-1.01;98.76;100270.19;439104;1255;129235;-61
2023/01/28 14:16:00;;;;;;;;;;;;;;;-1.10;97.58;100270.75;437046;1252;129079;-62
2023/01/28 14:26:16;;;;;;;;;;;;;;;-1.16;97.22;100273.69;449267;1253;130243;-61
2023/01/28 14:36:21;;;;;;;;;;;;;;;-1.20;96.82;100276.98;450427;1251;130274;-61
2023/01/28 14:46:30;;;;;;;;;;;;;;;-1.24;96.80;100273.56;450055;1252;129873;-61
2023/01/28 14:56:41;;;;;;;;;;;;;;;-1.23;97.00;100270.46;450580;1251;130574;-61
2023/01/28 15:06:45;;;;;;;;;;;;;;;-1.30;95.86;100280.63;443627;1252;135059;-62
2023/01/28 15:16:50;;;;;;;;;;;;;;;-1.37;95.19;100287.36;433508;1256;129670;-62
2023/01/28 15:26:54;;;;;;;;;;;;;;;-1.45;94.66;100293.55;448008;1251;128388;-61
2023/01/28 15:36:59;;;;;;;;;;;;;;;-1.50;94.76;100297.20;449923;1255;132081;-62
2023/01/28 15:47:12;;;;;;;;;;;;;;;-1.45;95.31;100302.14;447894;1251;132638;-62
2023/01/28 15:57:20;;;;;;;;;;;;;;;-1.45;95.98;100305.59;446059;1251;129317;-60
2023/01/28 16:07:24;;;;;;;;;;;;;;;-1.48;96.10;100310.92;447381;1251;198780;-61
2023/01/28 16:17:30;;;;;;;;;;;;;;;-1.47;96.47;100310.23;450458;1251;171493;-61
2023/01/28 16:27:34;;;;;;;;;;;;;;;-1.44;96.85;100309.54;449857;1251;186188;-62
2023/01/28 16:37:39;;;;;;;;;;;;;;;-1.46;96.76;100314.02;450440;1251;129273;-62
2023/01/28 16:47:45;;;;;;;;;;;;;;;-1.50;95.95;100324.31;450542;1251;129954;-62
2023/01/28 16:57:51;;;;;;;;;;;;;;;-1.57;95.36;100332.06;449761;1251;131001;-62
2023/01/28 17:07:58;;;;;;;;;;;;;;;-1.61;95.07;100335.52;450315;1251;129574;-62
2023/01/28 17:18:02;;;;;;;;;;;;;;;-1.64;96.19;100336.55;450425;1251;129866;-62
2023/01/28 17:28:06;;;;;;;;;;;;;;;-1.73;96.26;100333.30;449797;1251;130296;-62
2023/01/28 17:38:11;;;;;;;;;;;;;;;-1.82;96.06;100342.76;450461;1251;132847;-61
2023/01/28 17:48:15;;;;;;;;;;;;;;;-1.89;96.36;100337.94;450559;1251;129236;-62
2023/01/28 17:58:19;;;;;;;;;;;;;;;-1.93;96.60;100346.02;449821;1251;129040;-62
2023/01/28 18:08:23;;;;;;;;;;;;;;;-1.92;96.76;100347.39;444567;1250;129355;-61
2023/01/28 18:18:28;;;;;;;;;;;;;;;-1.90;96.92;100366.11;448276;1251;131911;-61
2023/01/28 18:28:32;;;;;;;;;;;;;;;-1.97;96.71;100375.36;450461;1251;130207;-61
2023/01/28 18:38:36;;;;;;;;;;;;;;;-2.06;96.88;100385.83;450443;1251;130081;-63
2023/01/28 18:48:40;;;;;;;;;;;;;;;-2.11;96.75;100379.98;449811;1251;129093;-62
2023/01/28 18:58:45;;;;;;;;;;;;;;;-2.17;96.22;100387.19;449202;1251;129144;-62
2023/01/28 19:08:53;;;;;;;;;;;;;;;-2.20;96.35;100397.82;443141;1251;128305;-62
2023/01/28 19:18:58;;;;;;;;;;;;;;;-2.24;95.90;100393.70;433799;1251;130400;-63
2023/01/28 19:29:05;;;;;;;;;;;;;;;-2.31;95.74;100403.12;450509;1251;129460;-61
2023/01/28 19:39:11;;;;;;;;;;;;;;;-2.33;95.02;100410.31;450487;1251;132021;-61
2023/01/28 19:49:16;;;;;;;;;;;;;;;-2.36;93.33;100406.55;449744;1251;129944;-61
2023/01/28 19:59:20;;;;;;;;;;;;;;;-2.36;92.38;100405.70;450541;1251;130471;-62
2023/01/28 20:09:24;;;;;;;;;;;;;;;-2.36;91.46;100406.53;445222;1251;131947;-61
2023/01/28 20:19:28;;;;;;;;;;;;;;;-2.41;90.85;100409.95;445541;1251;140952;-62
2023/01/28 20:29:33;;;;;;;;;;;;;;;-2.42;90.71;100409.44;450535;1251;130239;-61
2023/01/28 20:39:37;;;;;;;;;;;;;;;-2.40;90.46;100424.37;449815;1251;130066;-61
2023/01/28 20:49:41;;;;;;;;;;;;;;;-2.46;89.85;100439.61;450589;1251;130583;-63
2023/01/28 20:59:46;;;;;;;;;;;;;;;-2.52;89.55;100440.80;450430;1251;129366;-63
2023/01/28 21:09:50;;;;;;;;;;;;;;;-2.55;89.16;100447.98;449714;1251;174196;-63
2023/01/28 21:19:55;;;;;;;;;;;;;;;-2.68;88.37;100458.05;447575;1251;131718;-62
2023/01/28 21:29:59;;;;;;;;;;;;;;;-2.81;88.19;100459.52;436817;1252;133270;-62
2023/01/28 21:40:04;;;;;;;;;;;;;;;-2.96;87.42;100456.36;433422;1251;129271;-62
2023/01/28 21:50:09;;;;;;;;;;;;;;;-3.05;87.57;100456.83;433591;1251;131638;-63
2023/01/28 22:00:14;;;;;;;;;;;;;;;-3.17;86.93;100445.27;450375;1251;128941;-63
2023/01/28 22:10:19;;;;;;;;;;;;;;;-3.26;86.51;100433.76;449721;1251;133353;-63
2023/01/28 22:20:23;;;;;;;;;;;;;;;-3.25;86.47;100416.29;450317;1251;129331;-63
2023/01/28 22:30:27;;;;;;;;;;;;;;;-3.27;86.36;100406.35;449435;1251;129154;-62
2023/01/28 22:40:32;;;;;;;;;;;;;;;-3.30;86.39;100398.79;449500;1252;131197;-62
2023/01/28 22:50:36;;;;;;;;;;;;;;;-3.27;86.18;100397.61;450081;1251;129224;-63
2023/01/28 23:00:41;;;;;;;;;;;;;;;-3.27;86.17;100400.52;449607;1251;129620;-62
2023/01/28 23:10:48;;;;;;;;;;;;;;;-3.27;86.10;100407.04;448872;1251;129665;-62
2023/01/28 23:31:15;;;;;;;;;;;;;;;-3.20;86.09;100422.48;441765;1251;185009;-62
2023/01/28 23:41:20;;;;;;;;;;;;;;;-3.18;85.89;100422.15;446933;1251;129438;-63
2023/01/28 23:51:24;;;;;;;;;;;;;;;-3.18;85.87;100413.93;449626;1251;128722;-63
